createdAt,value
2023-04-27T00:01:52.092Z,1.60
2023-04-27T00:04:19.424Z,2.70
2023-04-27T00:06:46.518Z,1.80
2023-04-27T00:09:13.491Z,1.70
2023-04-27T00:11:40.471Z,1.80
2023-04-27T00:14:07.140Z,5.30
2023-04-27T00:16:33.915Z,1.60
2023-04-27T00:19:00.999Z,1.80
2023-04-27T00:21:27.752Z,1.60
2023-04-27T00:23:54.950Z,2.00
2023-04-27T00:26:22.528Z,2.00
2023-04-27T00:28:50.018Z,1.80
2023-04-27T00:31:16.769Z,2.00
2023-04-27T00:33:43.503Z,3.20
2023-04-27T00:36:10.145Z,2.60
2023-04-27T00:38:37.039Z,2.80
2023-04-27T00:41:07.101Z,1.40
2023-04-27T00:43:41.683Z,2.20
2023-04-27T00:46:09.518Z,1.50
2023-04-27T00:48:36.603Z,1.40
2023-04-27T00:51:03.473Z,1.90
2023-04-27T00:53:31.936Z,1.50
2023-04-27T00:55:59.108Z,2.70
2023-04-27T00:58:26.094Z,3.00
2023-04-27T01:00:52.915Z,2.30
2023-04-27T01:03:20.051Z,1.40
2023-04-27T01:05:46.796Z,2.50
2023-04-27T01:08:14.830Z,1.70
2023-04-27T01:10:41.751Z,1.50
2023-04-27T01:13:10.359Z,1.40
2023-04-27T01:15:38.015Z,1.80
2023-04-27T01:18:10.101Z,1.70
2023-04-27T01:20:38.859Z,1.50
2023-04-27T01:23:05.779Z,1.60
2023-04-27T01:25:32.424Z,1.40
2023-04-27T01:28:02.171Z,2.50
2023-04-27T01:30:30.251Z,1.30
2023-04-27T01:32:58.896Z,1.30
2023-04-27T01:35:28.153Z,2.10
2023-04-27T01:38:00.193Z,3.00
2023-04-27T01:40:26.904Z,1.60
2023-04-27T01:42:53.611Z,1.40
2023-04-27T01:45:20.312Z,1.40
2023-04-27T01:47:47.039Z,1.20
2023-04-27T01:50:13.792Z,1.10
2023-04-27T01:52:40.501Z,1.10
2023-04-27T01:55:07.961Z,1.50
2023-04-27T01:57:34.718Z,1.20
2023-04-27T02:00:01.677Z,1.10
2023-04-27T02:02:47.603Z,1.30
2023-04-27T02:05:14.392Z,1.20
2023-04-27T02:07:41.078Z,1.10
2023-04-27T02:10:08.346Z,1.20
2023-04-27T02:12:35.053Z,1.50
2023-04-27T02:15:03.809Z,1.00
2023-04-27T02:17:31.390Z,1.20
2023-04-27T02:19:58.120Z,1.40
2023-04-27T02:22:24.821Z,0.70
2023-04-27T02:24:51.703Z,1.50
2023-04-27T02:27:18.790Z,1.10
2023-04-27T02:29:45.991Z,1.40
2023-04-27T02:36:28.144Z,1.30
2023-04-27T02:38:56.065Z,1.00
2023-04-27T02:41:22.789Z,0.90
2023-04-27T02:43:51.549Z,2.30
2023-04-27T02:46:18.276Z,2.30
2023-04-27T02:48:44.960Z,1.30
2023-04-27T02:51:11.550Z,1.00
2023-04-27T02:53:38.208Z,1.10
2023-04-27T02:56:05.828Z,1.40
2023-04-27T02:58:32.744Z,1.30
2023-04-27T03:00:59.483Z,1.00
2023-04-27T03:03:26.455Z,1.20
2023-04-27T03:05:53.566Z,2.20
2023-04-27T03:08:20.441Z,1.30
2023-04-27T03:10:47.048Z,1.10
2023-04-27T03:13:15.610Z,2.00
2023-04-27T03:15:43.595Z,1.10
2023-04-27T03:18:10.237Z,1.20
2023-04-27T03:20:37.008Z,2.60
2023-04-27T03:23:03.695Z,2.90
2023-04-27T03:25:30.428Z,2.00
2023-04-27T03:27:57.078Z,4.10
2023-04-27T03:30:23.812Z,1.20
2023-04-27T03:32:50.692Z,1.30
2023-04-27T03:35:17.685Z,1.10
2023-04-27T03:37:46.269Z,1.30
2023-04-27T03:40:14.544Z,3.40
2023-04-27T03:42:41.199Z,2.90
2023-04-27T03:45:08.937Z,1.40
2023-04-27T03:47:35.666Z,1.10
2023-04-27T03:50:02.333Z,1.30
2023-04-27T03:52:28.997Z,1.20
2023-04-27T03:54:55.806Z,1.30
2023-04-27T03:57:22.808Z,3.80
2023-04-27T03:59:49.899Z,4.30
2023-04-27T04:02:17.431Z,2.00
2023-04-27T04:04:44.679Z,1.70
2023-04-27T04:07:11.967Z,2.80
2023-04-27T04:09:39.443Z,2.10
2023-04-27T04:12:06.668Z,1.70
2023-04-27T04:14:33.377Z,1.50
2023-04-27T04:17:00.274Z,1.70
2023-04-27T04:21:54.737Z,1.40
2023-04-27T04:24:21.751Z,1.20
2023-04-27T04:26:48.712Z,2.10
2023-04-27T04:29:15.694Z,2.20
2023-04-27T04:31:42.897Z,2.00
2023-04-27T04:34:10.141Z,4.00
2023-04-27T04:36:36.835Z,2.60
2023-04-27T04:39:05.713Z,1.50
2023-04-27T04:41:33.378Z,1.40
2023-04-27T04:44:00.781Z,1.30
2023-04-27T04:46:28.818Z,1.60
2023-04-27T04:48:56.888Z,1.30
2023-04-27T04:51:23.644Z,1.90
2023-04-27T04:53:50.284Z,2.90
2023-04-27T04:56:17.313Z,2.30
2023-04-27T04:58:44.092Z,2.90
2023-04-27T05:01:10.976Z,1.70
2023-04-27T05:03:37.950Z,2.00
2023-04-27T05:06:05.143Z,1.90
2023-04-27T05:08:31.791Z,2.40
2023-04-27T05:10:58.518Z,5.00
2023-04-27T05:13:25.160Z,1.80
2023-04-27T05:15:52.331Z,4.00
2023-04-27T05:18:19.673Z,1.60
2023-04-27T05:20:46.568Z,1.80
2023-04-27T05:23:13.217Z,4.20
2023-04-27T05:25:42.814Z,3.80
2023-04-27T05:28:10.499Z,1.50
2023-04-27T05:30:37.633Z,1.80
2023-04-27T05:33:04.871Z,3.80
2023-04-27T05:35:32.594Z,4.50
2023-04-27T05:37:59.772Z,4.30
2023-04-27T05:44:45.768Z,5.00
2023-04-27T05:47:12.360Z,2.10
2023-04-27T05:49:40.531Z,2.10
2023-04-27T05:52:07.287Z,4.70
2023-04-27T05:54:33.987Z,2.20
2023-04-27T05:57:00.631Z,1.40
2023-04-27T05:59:29.165Z,1.40
2023-04-27T06:01:55.929Z,2.90
2023-04-27T06:04:22.832Z,2.60
2023-04-27T06:06:49.678Z,1.70
2023-04-27T06:09:16.446Z,2.20
2023-04-27T06:11:43.749Z,3.60
2023-04-27T06:14:10.468Z,6.20
2023-04-27T06:16:37.089Z,3.00
2023-04-27T06:19:04.018Z,3.40
2023-04-27T06:21:35.601Z,3.10
2023-04-27T06:24:02.513Z,1.80
2023-04-27T06:26:29.236Z,2.20
2023-04-27T06:28:56.645Z,4.00
2023-04-27T06:31:23.491Z,2.90
2023-04-27T06:33:50.149Z,2.30
2023-04-27T06:36:16.825Z,2.20
2023-04-27T06:38:45.591Z,2.50
2023-04-27T06:41:12.335Z,1.70
2023-04-27T06:43:39.134Z,2.80
2023-04-27T06:46:06.473Z,1.70
2023-04-27T06:48:33.177Z,2.30
2023-04-27T06:50:59.886Z,2.00
2023-04-27T06:53:26.983Z,0.80
2023-04-27T06:55:53.964Z,1.40
2023-04-27T06:58:20.547Z,2.50
2023-04-27T07:00:47.211Z,3.10
2023-04-27T07:03:14.791Z,0.60
2023-04-27T07:05:41.658Z,0.60
2023-04-27T07:08:09.175Z,0.60
2023-04-27T07:10:36.462Z,1.50
2023-04-27T07:13:03.117Z,0.40
2023-04-27T07:15:31.785Z,0.40
2023-04-27T07:17:58.690Z,2.30
2023-04-27T07:20:25.907Z,0.40
2023-04-27T07:22:52.614Z,1.10
2023-04-27T07:25:20.082Z,0.60
2023-04-27T07:27:46.972Z,0.70
2023-04-27T07:30:14.475Z,0.70
2023-04-27T07:32:41.978Z,0.60
2023-04-27T07:35:09.901Z,0.90
2023-04-27T07:37:40.551Z,0.70
2023-04-27T07:40:16.517Z,0.60
2023-04-27T07:42:43.605Z,0.90
2023-04-27T07:45:10.599Z,0.90
2023-04-27T07:47:37.864Z,0.80
2023-04-27T07:50:10.332Z,0.70
2023-04-27T07:52:37.341Z,0.70
2023-04-27T07:55:04.747Z,0.60
2023-04-27T07:57:31.785Z,1.90
2023-04-27T07:59:58.521Z,0.70
2023-04-27T08:02:30.529Z,1.90
2023-04-27T08:07:25.088Z,0.60
2023-04-27T08:09:52.758Z,0.40
2023-04-27T08:12:19.593Z,0.40
2023-04-27T08:14:47.200Z,1.30
2023-04-27T08:17:13.865Z,1.10
2023-04-27T08:19:41.464Z,1.80
2023-04-27T08:22:08.695Z,0.60
2023-04-27T08:24:35.403Z,0.70
2023-04-27T08:27:03.774Z,0.50
2023-04-27T08:29:30.700Z,0.90
2023-04-27T08:32:00.559Z,1.30
2023-04-27T08:34:28.847Z,2.10
2023-04-27T08:36:56.773Z,0.80
2023-04-27T08:39:24.523Z,0.50
2023-04-27T08:41:51.746Z,0.30
2023-04-27T08:44:18.613Z,0.30
2023-04-27T08:46:45.456Z,0.60
2023-04-27T08:49:14.441Z,0.50
2023-04-27T08:51:43.506Z,0.40
2023-04-27T08:54:10.309Z,0.80
2023-04-27T08:56:37.414Z,0.40
2023-04-27T08:59:15.114Z,1.60
2023-04-27T09:01:49.506Z,1.90
2023-04-27T09:04:18.085Z,0.90
2023-04-27T09:06:45.150Z,0.90
2023-04-27T09:09:22.487Z,1.70
2023-04-27T09:11:50.093Z,0.90
2023-04-27T09:14:21.748Z,1.20
2023-04-27T09:17:00.143Z,1.80
2023-04-27T09:19:29.026Z,0.80
2023-04-27T09:22:07.638Z,0.40
2023-04-27T09:24:34.986Z,0.60
2023-04-27T09:27:03.249Z,0.40
2023-04-27T09:29:34.853Z,0.40
2023-04-27T09:32:01.652Z,1.20
2023-04-27T09:34:39.391Z,0.60
2023-04-27T09:37:06.690Z,0.60
2023-04-27T09:39:34.427Z,0.60
2023-04-27T09:42:01.872Z,0.60
2023-04-27T09:44:29.676Z,1.10
2023-04-27T09:46:58.565Z,0.50
2023-04-27T09:49:27.376Z,0.70
2023-04-27T09:51:57.101Z,0.80
2023-04-27T09:54:27.324Z,0.60
2023-04-27T09:57:03.039Z,1.10
2023-04-27T09:59:38.673Z,1.00
2023-04-27T10:02:20.959Z,1.00
2023-04-27T10:05:07.004Z,1.00
2023-04-27T10:07:35.713Z,0.90
2023-04-27T10:10:04.920Z,1.30
2023-04-27T10:12:37.370Z,2.20
2023-04-27T10:15:15.979Z,1.20
2023-04-27T10:17:53.181Z,1.40
2023-04-27T10:20:30.352Z,1.10
2023-04-27T10:22:58.097Z,1.60
2023-04-27T10:25:38.361Z,2.20
2023-04-27T10:28:05.207Z,1.40
2023-04-27T10:30:34.498Z,1.10
2023-04-27T10:33:09.529Z,1.00
2023-04-27T10:35:39.987Z,1.50
2023-04-27T10:38:24.473Z,1.50
2023-04-27T10:41:14.502Z,2.50
2023-04-27T10:43:41.421Z,2.60
2023-04-27T10:46:09.830Z,1.00
2023-04-27T10:48:37.320Z,0.80
2023-04-27T10:51:04.833Z,1.00
2023-04-27T10:53:36.057Z,0.90
2023-04-27T10:56:06.945Z,1.60
2023-04-27T10:58:48.146Z,1.20
2023-04-27T11:01:29.744Z,0.90
2023-04-27T11:04:01.080Z,1.00
2023-04-27T11:06:30.415Z,1.00
2023-04-27T11:08:57.195Z,1.90
2023-04-27T11:11:24.448Z,1.20
2023-04-27T11:13:53.162Z,0.90
2023-04-27T11:16:20.140Z,0.90
2023-04-27T11:18:47.334Z,0.90
2023-04-27T11:21:16.897Z,1.60
2023-04-27T11:23:43.828Z,1.80
2023-04-27T11:26:11.519Z,1.60
2023-04-27T11:28:39.169Z,1.80
2023-04-27T11:31:06.984Z,1.40
2023-04-27T11:33:35.832Z,1.40
2023-04-27T11:36:03.561Z,1.20
2023-04-27T11:38:34.183Z,1.40
2023-04-27T11:41:06.200Z,1.60
2023-04-27T11:43:33.834Z,2.50
2023-04-27T11:46:08.257Z,1.90
2023-04-27T11:48:37.537Z,4.90
2023-04-27T11:51:04.841Z,1.60
2023-04-27T11:53:40.664Z,2.20
2023-04-27T12:00:28.812Z,1.90
2023-04-27T12:07:09.481Z,4.20
2023-04-27T12:09:36.805Z,4.40
2023-04-27T12:12:04.307Z,3.50
2023-04-27T12:14:31.289Z,5.20
2023-04-27T12:21:11.664Z,3.20
2023-04-27T12:23:38.323Z,3.40
2023-04-27T12:26:05.387Z,3.60
2023-04-27T12:28:32.105Z,4.10
2023-04-27T12:30:58.938Z,4.10
2023-04-27T12:33:26.522Z,4.40
2023-04-27T12:35:53.208Z,4.90
2023-04-27T12:38:19.874Z,5.20
2023-04-27T12:40:46.755Z,5.00
2023-04-27T12:43:13.347Z,5.30
2023-04-27T12:45:40.037Z,5.20
2023-04-27T12:48:07.621Z,5.20
2023-04-27T12:50:36.825Z,4.20
2023-04-27T12:53:03.763Z,6.00
2023-04-27T12:55:34.095Z,5.70
2023-04-27T12:58:02.346Z,5.20
2023-04-27T13:00:29.948Z,4.90
2023-04-27T13:02:57.357Z,4.90
2023-04-27T13:09:38.583Z,10.40
2023-04-27T13:12:05.493Z,7.30
2023-04-27T13:14:33.575Z,11.90
2023-04-27T13:21:14.791Z,7.20
2023-04-27T13:23:41.537Z,7.80
2023-04-27T13:26:08.356Z,7.50
2023-04-27T13:28:35.023Z,7.30
2023-04-27T13:31:01.825Z,7.00
2023-04-27T13:33:31.016Z,10.90
2023-04-27T13:40:18.618Z,5.20
2023-04-27T13:42:45.258Z,6.90
2023-04-27T13:45:12.020Z,5.80
2023-04-27T13:47:40.689Z,5.60
2023-04-27T13:50:09.772Z,6.70
2023-04-27T13:52:37.964Z,5.60
2023-04-27T13:55:06.197Z,6.00
2023-04-27T13:57:33.377Z,7.00
2023-04-27T14:00:03.366Z,6.40
2023-04-27T14:02:34.121Z,5.70
2023-04-27T14:05:01.011Z,5.50
2023-04-27T14:07:27.692Z,6.40
2023-04-27T14:09:54.321Z,6.50
2023-04-27T14:12:21.053Z,5.60
2023-04-27T14:14:47.691Z,5.30
2023-04-27T14:17:14.352Z,4.70
2023-04-27T14:19:41.523Z,6.90
2023-04-27T14:22:09.474Z,5.80
2023-04-27T14:24:36.209Z,4.60
2023-04-27T14:27:02.875Z,4.60
2023-04-27T14:29:29.507Z,4.20
2023-04-27T14:31:56.365Z,3.90
2023-04-27T14:34:23.106Z,3.00
2023-04-27T14:36:49.802Z,4.60
2023-04-27T14:39:16.692Z,4.30
2023-04-27T14:41:43.492Z,3.70
2023-04-27T14:44:10.149Z,5.00
2023-04-27T14:46:37.130Z,4.60
2023-04-27T14:49:03.843Z,2.70
2023-04-27T14:51:32.411Z,3.50
2023-04-27T14:53:59.293Z,3.50
2023-04-27T14:56:26.175Z,3.80
2023-04-27T14:58:52.921Z,3.30
2023-04-27T15:01:19.595Z,4.40
2023-04-27T15:03:46.649Z,3.70
2023-04-27T15:06:13.936Z,2.90
2023-04-27T15:08:40.647Z,4.50
2023-04-27T15:11:07.322Z,4.70
2023-04-27T15:13:34.060Z,3.90
2023-04-27T15:16:02.019Z,3.70
2023-04-27T15:18:28.735Z,5.40
2023-04-27T15:20:56.605Z,4.80
2023-04-27T15:23:24.948Z,3.40
2023-04-27T15:25:55.185Z,3.90
2023-04-27T15:28:22.104Z,4.10
2023-04-27T15:30:49.446Z,3.50
2023-04-27T15:33:17.559Z,4.60
2023-04-27T15:35:44.460Z,4.20
2023-04-27T15:38:15.571Z,3.40
2023-04-27T15:40:42.317Z,4.80
2023-04-27T15:43:09.029Z,3.50
2023-04-27T15:45:35.931Z,6.70
2023-04-27T15:48:02.768Z,4.20
2023-04-27T15:50:29.507Z,4.00
2023-04-27T15:52:56.262Z,5.70
2023-04-27T15:55:22.954Z,8.10
2023-04-27T15:57:50.469Z,4.60
2023-04-27T16:00:19.033Z,4.20
2023-04-27T16:02:46.410Z,5.60
2023-04-27T16:05:13.498Z,5.00
2023-04-27T16:07:42.725Z,5.50
2023-04-27T16:10:10.364Z,5.30
2023-04-27T16:12:37.314Z,5.20
2023-04-27T16:15:04.647Z,4.80
2023-04-27T16:17:36.053Z,5.70
2023-04-27T16:20:06.634Z,5.20
2023-04-27T16:22:34.326Z,5.20
2023-04-27T16:25:01.008Z,6.60
2023-04-27T16:27:27.824Z,5.60
2023-04-27T16:29:55.000Z,6.30
2023-04-27T16:32:21.975Z,4.90
2023-04-27T16:34:48.976Z,6.50
2023-04-27T16:37:15.979Z,6.00
2023-04-27T16:39:42.696Z,7.30
2023-04-27T16:42:09.826Z,8.60
2023-04-27T16:44:37.957Z,6.80
2023-04-27T16:47:04.618Z,6.50
2023-04-27T16:49:31.535Z,5.90
2023-04-27T16:51:58.282Z,6.00
2023-04-27T16:54:24.987Z,6.60
2023-04-27T16:56:53.205Z,7.60
2023-04-27T16:59:21.188Z,8.90
2023-04-27T17:01:48.045Z,6.60
2023-04-27T17:04:14.890Z,6.20
2023-04-27T17:06:41.816Z,7.60
2023-04-27T17:09:10.249Z,6.00
2023-04-27T17:11:37.400Z,6.20
2023-04-27T17:14:04.127Z,8.20
2023-04-27T17:16:30.774Z,6.40
2023-04-27T17:18:57.594Z,6.30
2023-04-27T17:21:25.707Z,5.70
2023-04-27T17:23:53.307Z,5.00
2023-04-27T17:26:21.639Z,4.80
2023-04-27T17:28:49.520Z,5.10
2023-04-27T17:31:17.720Z,5.00
2023-04-27T17:33:45.646Z,7.00
2023-04-27T17:36:13.101Z,6.80
2023-04-27T17:38:39.833Z,5.00
2023-04-27T17:41:06.580Z,8.80
2023-04-27T17:43:33.267Z,6.60
2023-04-27T17:46:00.022Z,4.60
2023-04-27T17:52:54.204Z,5.90
2023-04-27T17:55:21.294Z,3.40
2023-04-27T17:57:48.025Z,2.90
2023-04-27T18:00:15.709Z,3.90
2023-04-27T18:02:42.718Z,2.20
2023-04-27T18:05:09.836Z,3.10
2023-04-27T18:07:37.542Z,3.20
2023-04-27T18:10:05.724Z,2.00
2023-04-27T18:12:32.435Z,1.80
2023-04-27T18:15:00.580Z,1.70
2023-04-27T18:17:29.505Z,2.10
2023-04-27T18:20:07.442Z,3.10
2023-04-27T18:22:38.575Z,3.00
2023-04-27T18:25:05.663Z,1.90
2023-04-27T18:27:33.083Z,2.60
2023-04-27T18:29:59.754Z,3.60
2023-04-27T18:32:26.512Z,2.00
2023-04-27T18:34:54.073Z,2.50
2023-04-27T18:37:20.916Z,2.00
2023-04-27T18:39:47.581Z,4.10
2023-04-27T18:42:14.262Z,3.20
2023-04-27T18:44:41.022Z,2.70
2023-04-27T18:47:08.017Z,1.50
2023-04-27T18:49:34.721Z,2.90
2023-04-27T18:52:01.476Z,1.70
2023-04-27T18:54:28.098Z,2.30
2023-04-27T19:01:33.571Z,2.10
2023-04-27T19:04:00.478Z,7.40
2023-04-27T19:06:27.679Z,2.40
2023-04-27T19:08:54.645Z,4.00
2023-04-27T19:11:22.530Z,3.80
2023-04-27T19:13:50.722Z,6.00
2023-04-27T19:16:17.424Z,5.10
2023-04-27T19:18:44.133Z,3.60
2023-04-27T19:21:13.364Z,7.10
2023-04-27T19:27:47.258Z,3.90
2023-04-27T19:30:14.068Z,3.50
2023-04-27T19:32:40.901Z,4.00
2023-04-27T19:35:11.759Z,3.00
2023-04-27T19:37:38.718Z,4.70
2023-04-27T19:40:06.370Z,2.30
2023-04-27T19:42:33.063Z,3.80
2023-04-27T19:45:01.183Z,3.80
2023-04-27T19:47:27.897Z,2.20
2023-04-27T19:49:54.745Z,3.30
2023-04-27T19:52:21.493Z,2.60
2023-04-27T19:54:52.666Z,4.10
2023-04-27T19:57:19.343Z,2.50
2023-04-27T19:59:46.129Z,3.00
2023-04-27T20:02:12.819Z,1.60
2023-04-27T20:04:41.400Z,2.30
2023-04-27T20:07:08.597Z,3.00
2023-04-27T20:09:35.459Z,2.70
2023-04-27T20:12:02.238Z,2.40
2023-04-27T20:14:31.319Z,6.50
2023-04-27T20:16:58.035Z,3.70
2023-04-27T20:19:25.266Z,3.40
2023-04-27T20:21:52.084Z,2.00
2023-04-27T20:24:18.881Z,3.10
2023-04-27T20:26:46.556Z,2.40
2023-04-27T20:29:13.206Z,2.60
2023-04-27T20:31:39.920Z,4.20
2023-04-27T20:34:06.528Z,3.40
2023-04-27T20:36:34.008Z,2.50
2023-04-27T20:39:06.739Z,2.70
2023-04-27T20:41:38.550Z,3.30
2023-04-27T20:44:06.008Z,3.00
2023-04-27T20:50:58.962Z,1.70
2023-04-27T20:53:26.345Z,2.90
2023-04-27T20:55:53.001Z,3.20
2023-04-27T20:58:19.697Z,2.70
2023-04-27T21:00:46.450Z,1.10
2023-04-27T21:03:13.334Z,1.80
2023-04-27T21:05:41.197Z,2.00
2023-04-27T21:08:07.856Z,3.30
2023-04-27T21:10:35.620Z,2.10
2023-04-27T21:13:04.245Z,2.40
2023-04-27T21:15:31.064Z,1.70
2023-04-27T21:17:57.808Z,5.70
2023-04-27T21:20:24.620Z,3.60
2023-04-27T21:22:51.200Z,3.00
2023-04-27T21:25:18.419Z,2.50
2023-04-27T21:27:45.159Z,3.40
2023-04-27T21:30:12.341Z,2.30
2023-04-27T21:32:39.671Z,2.60
2023-04-27T21:35:08.046Z,2.60
2023-04-27T21:37:35.446Z,1.90
2023-04-27T21:40:02.457Z,2.90
2023-04-27T21:42:29.237Z,2.10
2023-04-27T21:44:56.931Z,2.10
2023-04-27T21:47:23.747Z,2.70
2023-04-27T21:49:52.474Z,3.20
2023-04-27T21:52:21.612Z,2.50
2023-04-27T21:54:48.382Z,2.30
2023-04-27T21:57:15.063Z,1.90
2023-04-27T21:59:41.660Z,2.20
2023-04-27T22:02:08.479Z,2.30
2023-04-27T22:04:39.631Z,2.10
2023-04-27T22:07:10.545Z,3.10
2023-04-27T22:09:37.190Z,1.70
2023-04-27T22:12:04.769Z,2.30
2023-04-27T22:14:31.502Z,1.60
2023-04-27T22:16:58.559Z,1.50
2023-04-27T22:19:25.435Z,1.90
2023-04-27T22:21:52.182Z,1.60
2023-04-27T22:24:18.883Z,1.70
2023-04-27T22:26:48.311Z,2.30
2023-04-27T22:29:16.438Z,1.20
2023-04-27T22:31:43.567Z,1.90
2023-04-27T22:34:12.993Z,1.80
2023-04-27T22:36:39.960Z,1.60
2023-04-27T22:39:07.261Z,3.80
2023-04-27T22:41:34.212Z,1.80
2023-04-27T22:44:00.953Z,1.80
2023-04-27T22:46:27.624Z,2.90
2023-04-27T22:48:54.402Z,3.40
2023-04-27T22:51:21.892Z,2.60
2023-04-27T22:53:49.309Z,2.30
2023-04-27T22:56:15.969Z,2.80
2023-04-27T22:58:42.620Z,3.90
2023-04-27T23:01:09.388Z,1.90
2023-04-27T23:03:36.434Z,2.80
2023-04-27T23:06:03.293Z,3.80
2023-04-27T23:08:29.954Z,2.60
2023-04-27T23:10:56.942Z,2.40
2023-04-27T23:13:29.767Z,2.90
2023-04-27T23:15:56.939Z,2.20
2023-04-27T23:18:23.577Z,3.20
2023-04-27T23:20:57.159Z,2.30
2023-04-27T23:23:23.846Z,4.20
2023-04-27T23:25:50.705Z,4.60
2023-04-27T23:28:17.534Z,4.40
2023-04-27T23:30:44.200Z,2.60
2023-04-27T23:33:10.983Z,3.00
2023-04-27T23:35:37.588Z,3.40
2023-04-27T23:38:04.290Z,3.60
2023-04-27T23:40:31.311Z,5.10
2023-04-27T23:42:57.985Z,4.80
2023-04-27T23:45:24.707Z,4.40
2023-04-27T23:47:51.435Z,4.20
2023-04-27T23:50:18.190Z,3.20
2023-04-27T23:52:45.348Z,5.40
2023-04-27T23:55:12.167Z,6.80
2023-04-27T23:57:38.947Z,5.90
